Flight Track Log - Related Links

Times and Time Zones

All times are in EDT time to prevent confusion due to time zone crossing. See the WEW1540 flight status page for this flight to view local times or setup timezone preferences in your user account.

Time Position Orientation Groundspeed Altitude Reporting Facility
EDT Latitude Longitude Course Direction KTS MPH feet Rate Location/Type
Tue 07:19:00 PM 51.2598 -108.8589 142° Southeast  Level Estimated
Tue 07:20:00 PM 51.2218 -108.8115 142° Southeast  Level FlightAware Approximate
Tue 07:21:00 PM 51.1838 -108.7642 142° Southeast  Level FlightAware Approximate
Tue 07:22:00 PM 51.1457 -108.7170 142° Southeast  Level FlightAware Approximate
Tue 07:23:00 PM 51.1077 -108.6698 142° Southeast  Level FlightAware Approximate
Tue 07:24:00 PM 51.0696 -108.6227 142° Southeast  Level FlightAware Approximate
Tue 07:25:00 PM 51.0315 -108.5757 142° Southeast  Level FlightAware Approximate
Tue 07:26:00 PM 50.9934 -108.5287 142° Southeast  Level FlightAware Approximate
Tue 07:27:00 PM 50.9553 -108.4819 142° Southeast  Level FlightAware Approximate
Tue 07:28:00 PM 50.9171 -108.4351 142° Southeast  Level FlightAware Approximate
Tue 07:29:00 PM 50.8789 -108.3884 142° Southeast  Level FlightAware Approximate
Tue 07:30:00 PM 50.8408 -108.3417 142° Southeast  Level FlightAware Approximate
Tue 07:31:00 PM 50.8026 -108.2952 142° Southeast  Level FlightAware Approximate
Tue 07:32:00 PM 50.7643 -108.2487 142° Southeast  Level FlightAware Approximate
Tue 07:33:00 PM 50.7261 -108.2023 142° Southeast  Level FlightAware Approximate
Tue 07:34:00 PM 50.6878 -108.1560 143° Southeast  Level FlightAware Approximate
Tue 07:35:00 PM 50.6495 -108.1097 143° Southeast  Level FlightAware Approximate
Tue 07:36:00 PM 50.6110 -108.0641 143° Southeast  Level Estimated
Tue 07:37:00 PM 50.5725 -108.0182 143° Southeast  Level FlightAware Approximate
Tue 07:38:00 PM 50.5341 -107.9725 143° Southeast  Level FlightAware Approximate
Tue 07:39:00 PM 50.4956 -107.9268 143° Southeast  Level FlightAware Approximate
Tue 07:40:00 PM 50.4571 -107.8811 143° Southeast  Level FlightAware Approximate
Tue 07:41:00 PM 50.4183 -107.8362 144° Southeast  Level Estimated
Tue 07:42:00 PM 50.3792 -107.7919 144° Southeast  Level FlightAware Approximate
Tue 07:43:00 PM 50.3402 -107.7476 144° Southeast  Level FlightAware Approximate
Tue 07:44:00 PM 50.3011 -107.7034 144° Southeast  Level FlightAware Approximate
Tue 07:45:00 PM 50.2919 -107.6906 144° Southeast  Level Estimated
Tue 07:46:00 PM 50.2919 -107.6906 144° Southeast  Level Estimated
Tue 07:47:00 PM 50.2919 -107.6906 144° Southeast  Level Estimated
Tue 07:48:00 PM 50.2919 -107.6906 144° Southeast  Level Estimated
Tue 07:49:00 PM 50.2919 -107.6906 144° Southeast  Level Estimated
Tue 07:50:00 PM 50.2919 -107.6906 144° Southeast  Level Estimated
Tue 07:51:00 PM 50.2919 -107.6906 144° Southeast  Level Estimated
Tue 07:52:00 PM 50.2919 -107.6906 144° Southeast  Level Estimated
Tue 07:53:00 PM 50.2919 -107.6906 144° Southeast  Level Estimated
Tue 07:54:00 PM 50.2919 -107.6906 144° Southeast  Level Estimated
Tue 07:55:00 PM 50.2919 -107.6906 144° Southeast  Level Estimated
Tue 07:56:00 PM 50.2919 -107.6906 144° Southeast  Level Estimated
Tue 07:57:00 PM 50.2919 -107.6906 144° Southeast  Level Estimated
Tue 07:58:00 PM 50.2919 -107.6906 144° Southeast  Level Estimated
Tue 07:59:00 PM 50.2919 -107.6906 144° Southeast  Level Estimated

Login

Don't have an account? Register now (free) for customized features, flight alerts, and more!